Airfield :
LOGIN :

Register | Disclaimer

   EN    FR    IT 

 










Legend :    VFR   Marginal VFR   IFR   Intensive IFR   Very Intensive IFR
Visi :
Ceiling :
>= 8 km
>= 3000ft
5 to 8 km
1000 to 3000 ft
1500m to 5 km
500 to 1000 ft
800 to 1500m
200 to 500 ft
< 800m
< 200 ft
Symbols :   Thunderstorms  Fog  Heavy snow  Heavy precipitations  Wind > 20 kt
SIGMETs :     Misc.  Thunderstorms  Icing  Turbulence  Mountain Waves  Volcanic Ashes







- Airport Elevation : 622 ft
- IATA code : BRS
- Download approach charts


EGGD - Bristol Int.

CURRENT METAR :
  • 202320Z AUTO 23004KT 9999 NCD 11/11 Q1030

EXPIRED METARs :
  • 202250Z AUTO 22004KT 9000 NCD 11/11 Q1030
  • 202220Z AUTO 24004KT 9999 NCD 11/11 Q1030
  • 202150Z AUTO 27005KT 9999 NCD 11/11 Q1030
  • 202120Z AUTO 25004KT 9999 NCD 11/11 Q1031
  • 202050Z AUTO 23004KT 9999 NCD 11/11 Q1031

TAF AMD TAF EGGD
Valid from the 20 at 20:00 until the 21 at 18:00 UTC


202037Z 2020/2118 26008KT 9999 FEW020
TEMPO 2020/2024 9000
TEMPO 2100/2106 3000 BR MIFG
PROB30 2106/2110 0200 FG BKN001
PROB40 2110/2112 9000
TEMPO 2115/2118 7000 -RA BKN012
PROB40
TEMPO 2116/2118 BKN004
ATIS : +44 1275 473 666
No reported NOTAMs for that airfield.



MET'MAP, your aeronautical weather chart ! - Copyright ORBIFLY December 2007 - Disclaimer

ORBIFLY MET'MAP TEAM :

Programming & Development : Alexandra Zaïnal
Concept & Development : Baudouin d'Aumeries
Co-Development & Prog : Marc-Olivier Méhu
Technical & hardware support : Manuel Goepfert

Contact : metmap@orbifly.com




SOURCES & CREDITS :

   NOAA